Time;durP1;ratioP1;P1;durP2;ratioP2;P2;SDS_P1;SDS_P2;PMS_P1;PMS_P2;Temp;Humidity;BMP_temperature;BMP_pressure;BME280_temperature;BME280_humidity;BME280_pressure;Samples;Min_cycle;Max_cycle;Signal;HPM_P1;HPM_P2
2023/07/10 00:04:54;;;;;;;;;;;;;;;20.19;59.62891;102073.1;;;;-70
2023/07/10 00:05:55;;;;;;;0.2;0;;;;;;;;;;;;;-68
2023/07/10 00:09:54;;;;;;;;;;;;;;;20.12;59.78906;102074.3;;;;-68
2023/07/10 00:14:54;;;;;;;;;;;;;;;20.07;59.66992;102079.2;;;;-70
2023/07/10 00:19:54;;;;;;;;;;;;;;;19.97;59.79199;102072.5;;;;-67
2023/07/10 00:24:54;;;;;;;;;;;;;;;19.91;60.08984;102093.4;;;;-69
2023/07/10 00:29:54;;;;;;;;;;;;;;;19.84;60.17285;102101.2;;;;-68
2023/07/10 00:34:54;;;;;;;;;;;;;;;19.78;60.0957;102094.1;;;;-68
2023/07/10 00:35:58;;;;;;;0.5;0.3;;;;;;;;;;;;;-68
2023/07/10 00:39:54;;;;;;;;;;;;;;;19.72;60.1123;102097.3;;;;-70
2023/07/10 00:44:57;;;;;;;;;;;;;;;19.7;60.3584;102098.1;;;;-69
2023/07/10 00:49:56;;;;;;;;;;;;;;;19.69;60.43652;102095.6;;;;-69
2023/07/10 00:54:55;;;;;;;;;;;;;;;19.69;60.36816;102084;;;;-69
2023/07/10 00:59:54;;;;;;;;;;;;;;;19.65;60.44238;102098.9;;;;-67
2023/07/10 01:04:58;;;;;;;;;;;;;;;19.59;60.33203;102090.7;;;;-69
2023/07/10 01:06:02;;;;;;;0.2;0;;;;;;;;;;;;;-69
2023/07/10 01:09:57;;;;;;;;;;;;;;;19.54;60.68945;102080.7;;;;-69
2023/07/10 01:14:54;;;;;;;;;;;;;;;19.48;60.56641;102086.8;;;;-69
2023/07/10 01:19:56;;;;;;;;;;;;;;;19.42;60.53613;102094.8;;;;-69
2023/07/10 01:24:54;;;;;;;;;;;;;;;19.34;60.73047;102100.6;;;;-69
2023/07/10 01:29:58;;;;;;;;;;;;;;;19.34;60.70703;102095.7;;;;-69
2023/07/10 01:34:57;;;;;;;;;;;;;;;19.28;60.6416;102098.3;;;;-68
2023/07/10 01:36:05;;;;;;;0.2;0;;;;;;;;;;;;;-68
2023/07/10 01:39:55;;;;;;;;;;;;;;;19.22;61.64355;102093;;;;-69
2023/07/10 01:44:54;;;;;;;;;;;;;;;19.19;61.10645;102088.2;;;;-68
2023/07/10 01:49:56;;;;;;;;;;;;;;;19.11;60.88965;102079.9;;;;-69
2023/07/10 01:54:54;;;;;;;;;;;;;;;19.06;60.89551;102079.6;;;;-68
2023/07/10 01:59:54;;;;;;;;;;;;;;;19;60.86523;102077.3;;;;-68
2023/07/10 02:04:54;;;;;;;;;;;;;;;19;61.22754;102075.5;;;;-68
2023/07/10 02:06:08;;;;;;;0.2;0;;;;;;;;;;;;;-69
2023/07/10 02:09:54;;;;;;;;;;;;;;;19.01;61.08008;102070.1;;;;-68
2023/07/10 02:14:54;;;;;;;;;;;;;;;18.99;61.09082;102074.8;;;;-69
2023/07/10 02:19:54;;;;;;;;;;;;;;;19.01;61.4209;102079.1;;;;-68
2023/07/10 02:24:54;;;;;;;;;;;;;;;19.01;61.55859;102073.4;;;;-68
2023/07/10 02:29:57;;;;;;;;;;;;;;;18.95;62.60547;102079.9;;;;-72
2023/07/10 02:34:54;;;;;;;;;;;;;;;18.95;62.31055;102078.8;;;;-67
2023/07/10 02:36:10;;;;;;;0.2;0;;;;;;;;;;;;;-69
2023/07/10 02:39:54;;;;;;;;;;;;;;;18.88;62.25488;102074.6;;;;-71
2023/07/10 02:44:54;;;;;;;;;;;;;;;18.85;62.38672;102075.1;;;;-72
2023/07/10 02:49:54;;;;;;;;;;;;;;;18.78;62.42285;102074.6;;;;-72
2023/07/10 02:54:54;;;;;;;;;;;;;;;18.73;62.38184;102071.1;;;;-71
2023/07/10 02:59:58;;;;;;;;;;;;;;;18.7;62.60352;102070;;;;-71
2023/07/10 03:04:54;;;;;;;;;;;;;;;18.65;62.72168;102061.4;;;;-71
2023/07/10 03:06:14;;;;;;;0.2;0;;;;;;;;;;;;;-72
2023/07/10 03:09:54;;;;;;;;;;;;;;;18.6;62.44238;102068.3;;;;-71
2023/07/10 03:14:54;;;;;;;;;;;;;;;18.56;62.91113;102079.7;;;;-68
2023/07/10 03:19:54;;;;;;;;;;;;;;;18.51;63.43848;102079.3;;;;-69
2023/07/10 03:24:55;;;;;;;;;;;;;;;18.51;62.63281;102076.2;;;;-71
2023/07/10 03:29:54;;;;;;;;;;;;;;;18.5;62.88086;102084.7;;;;-69
2023/07/10 03:34:57;;;;;;;;;;;;;;;18.42;63.26563;102080.9;;;;-69
2023/07/10 03:36:17;;;;;;;0.2;0;;;;;;;;;;;;;-69
2023/07/10 03:39:54;;;;;;;;;;;;;;;18.37;63.19238;102075.3;;;;-67
2023/07/10 03:44:54;;;;;;;;;;;;;;;18.34;63.45898;102083.9;;;;-69
2023/07/10 03:49:54;;;;;;;;;;;;;;;18.31;63.23926;102087.5;;;;-69
2023/07/10 03:54:54;;;;;;;;;;;;;;;18.3;63.99609;102094.2;;;;-68
2023/07/10 03:59:54;;;;;;;;;;;;;;;18.29;64.16406;102094.5;;;;-70
2023/07/10 04:04:54;;;;;;;;;;;;;;;18.3;64.42578;102098.9;;;;-67
2023/07/10 04:06:19;;;;;;;0.3;0.1;;;;;;;;;;;;;-70
2023/07/10 04:09:54;;;;;;;;;;;;;;;18.3;64.63086;102104.8;;;;-68
2023/07/10 04:14:54;;;;;;;;;;;;;;;18.32;65.22168;102116.3;;;;-69
2023/07/10 04:19:54;;;;;;;;;;;;;;;18.36;65.05664;102115.8;;;;-68
2023/07/10 04:25:03;;;;;;;;;;;;;;;18.34;65.50781;102121.2;;;;-69
2023/07/10 04:29:54;;;;;;;;;;;;;;;18.38;65.64844;102132.7;;;;-70
2023/07/10 04:34:54;;;;;;;;;;;;;;;18.38;65.73926;102135.5;;;;-70
2023/07/10 04:36:22;;;;;;;0.2;0;;;;;;;;;;;;;-69
2023/07/10 04:39:54;;;;;;;;;;;;;;;18.37;65.61328;102137.1;;;;-69
2023/07/10 04:44:54;;;;;;;;;;;;;;;18.38;65.80664;102142.6;;;;-69
2023/07/10 04:49:54;;;;;;;;;;;;;;;18.35;66.14258;102138.7;;;;-69
2023/07/10 04:54:54;;;;;;;;;;;;;;;18.36;66.48145;102135.5;;;;-68
2023/07/10 04:59:54;;;;;;;;;;;;;;;18.34;66.45605;102137.9;;;;-69
2023/07/10 05:04:54;;;;;;;;;;;;;;;18.36;66.62891;102131.4;;;;-68
2023/07/10 05:06:25;;;;;;;0.2;0.1;;;;;;;;;;;;;-71
2023/07/10 05:09:54;;;;;;;;;;;;;;;18.39;66.99609;102133.9;;;;-70
2023/07/10 05:14:57;;;;;;;;;;;;;;;18.43;66.76367;102133.2;;;;-68
2023/07/10 05:19:54;;;;;;;;;;;;;;;18.5;66.67285;102137.5;;;;-68
2023/07/10 05:24:54;;;;;;;;;;;;;;;18.59;66.90137;102133.8;;;;-69
2023/07/10 05:29:57;;;;;;;;;;;;;;;18.75;66.9834;102132.3;;;;-69
2023/07/10 05:34:54;;;;;;;;;;;;;;;19.27;67.08398;102129;;;;-69
2023/07/10 05:36:27;;;;;;;0.2;0;;;;;;;;;;;;;-69
2023/07/10 05:39:54;;;;;;;;;;;;;;;20.01;64.83301;102129.9;;;;-70
2023/07/10 05:44:57;;;;;;;;;;;;;;;20.55;64.70605;102128.4;;;;-69
2023/07/10 05:49:55;;;;;;;;;;;;;;;21.11;62.7832;102132.5;;;;-70
2023/07/10 05:54:55;;;;;;;;;;;;;;;21.64;62.01367;102131;;;;-69
2023/07/10 05:59:54;;;;;;;;;;;;;;;22.1;60.90137;102138.5;;;;-69
2023/07/10 06:04:54;;;;;;;;;;;;;;;22.51;59.91602;102136.7;;;;-69
2023/07/10 06:06:30;;;;;;;0.2;0;;;;;;;;;;;;;-68
2023/07/10 06:09:54;;;;;;;;;;;;;;;22.87;59.27637;102141.9;;;;-69
2023/07/10 06:14:54;;;;;;;;;;;;;;;23.27;58.49219;102129;;;;-70
2023/07/10 06:19:54;;;;;;;;;;;;;;;23.63;57.51855;102139.5;;;;-70
2023/07/10 06:24:54;;;;;;;;;;;;;;;23.88;57.42383;102141.5;;;;-69
2023/07/10 06:29:56;;;;;;;;;;;;;;;24.28;56.69336;102150.2;;;;-69
2023/07/10 06:34:54;;;;;;;;;;;;;;;24.52;56.19434;102155.8;;;;-69
2023/07/10 06:36:36;;;;;;;0.3;0.1;;;;;;;;;;;;;-71
2023/07/10 06:40:05;;;;;;;;;;;;;;;24.83;55.71582;102155.5;;;;-70
2023/07/10 06:44:54;;;;;;;;;;;;;;;25.08;55.13574;102163;;;;-68
2023/07/10 06:49:54;;;;;;;;;;;;;;;25.24;54.61328;102168.1;;;;-69
2023/07/10 06:54:54;;;;;;;;;;;;;;;25.52;53.8291;102172.3;;;;-71
2023/07/10 06:59:54;;;;;;;;;;;;;;;25.71;53.48145;102173;;;;-69
2023/07/10 07:04:54;;;;;;;;;;;;;;;26.07;53.03809;102173.1;;;;-68
2023/07/10 07:06:37;;;;;;;1.1;0.2;;;;;;;;;;;;;-69
2023/07/10 07:09:57;;;;;;;;;;;;;;;26.26;52.0791;102173.1;;;;-69
2023/07/10 07:14:54;;;;;;;;;;;;;;;26.35;52.1123;102170.7;;;;-70
2023/07/10 07:19:54;;;;;;;;;;;;;;;26.65;51.11719;102168.5;;;;-68
2023/07/10 07:24:54;;;;;;;;;;;;;;;26.8;50.53125;102165.3;;;;-68
2023/07/10 07:29:54;;;;;;;;;;;;;;;26.89;50.125;102167.7;;;;-68
2023/07/10 07:34:54;;;;;;;;;;;;;;;27.08;50.07617;102174.7;;;;-69
2023/07/10 07:36:41;;;;;;;0.2;0;;;;;;;;;;;;;-69
2023/07/10 07:39:56;;;;;;;;;;;;;;;27.23;49.45508;102170.2;;;;-69
2023/07/10 07:44:54;;;;;;;;;;;;;;;27.24;48.88867;102178.7;;;;-73
2023/07/10 07:49:54;;;;;;;;;;;;;;;27.2;48.81348;102178.3;;;;-69
2023/07/10 07:54:54;;;;;;;;;;;;;;;27.13;48.5625;102184.8;;;;-70
2023/07/10 07:59:56;;;;;;;;;;;;;;;27.15;48.62207;102184.3;;;;-71
2023/07/10 08:04:54;;;;;;;;;;;;;;;27.39;48.25391;102184.8;;;;-69
2023/07/10 08:06:47;;;;;;;0.2;0;;;;;;;;;;;;;-69
2023/07/10 08:09:54;;;;;;;;;;;;;;;27.25;48.28516;102188.9;;;;-71
2023/07/10 08:14:54;;;;;;;;;;;;;;;27.35;48.05176;102180.9;;;;-69
2023/07/10 08:19:54;;;;;;;;;;;;;;;27.57;47.87891;102184.7;;;;-69
2023/07/10 08:24:54;;;;;;;;;;;;;;;27.59;47.82324;102191;;;;-68
2023/07/10 08:29:54;;;;;;;;;;;;;;;27.61;47.25488;102196.3;;;;-70
2023/07/10 08:34:54;;;;;;;;;;;;;;;27.83;47.1748;102199.2;;;;-69
2023/07/10 08:36:50;;;;;;;0.2;0;;;;;;;;;;;;;-69
2023/07/10 08:39:54;;;;;;;;;;;;;;;27.87;47.12012;102204.5;;;;-70
2023/07/10 08:44:57;;;;;;;;;;;;;;;28.01;46.55273;102203.5;;;;-69
2023/07/10 08:49:57;;;;;;;;;;;;;;;28.14;45.96191;102209.1;;;;-70
2023/07/10 08:54:55;;;;;;;;;;;;;;;28.19;45.30371;102209.5;;;;-68
2023/07/10 08:59:58;;;;;;;;;;;;;;;28.48;44.75;102196.3;;;;-69
2023/07/10 09:04:54;;;;;;;;;;;;;;;28.79;44.32715;102195.5;;;;-70
2023/07/10 09:06:56;;;;;;;0.3;0.1;;;;;;;;;;;;;-70
2023/07/10 09:09:56;;;;;;;;;;;;;;;28.77;43.32227;102193.2;;;;-70
2023/07/10 09:14:56;;;;;;;;;;;;;;;28.95;41.97363;102190.3;;;;-67
2023/07/10 09:19:57;;;;;;;;;;;;;;;29.16;42.74121;102196.7;;;;-68
2023/07/10 09:24:54;;;;;;;;;;;;;;;29.34;41.82422;102201;;;;-68
2023/07/10 09:30:04;;;;;;;;;;;;;;;29.55;41.59766;102206.9;;;;-68
2023/07/10 09:34:55;;;;;;;;;;;;;;;29.75;41.0791;102213.5;;;;-69
2023/07/10 09:37:01;;;;;;;0.7;0.3;;;;;;;;;;;;;-68
2023/07/10 09:39:54;;;;;;;;;;;;;;;29.87;40.89063;102216.7;;;;-69
2023/07/10 09:44:55;;;;;;;;;;;;;;;30.04;40.28613;102220.9;;;;-73
2023/07/10 09:49:56;;;;;;;;;;;;;;;30.22;39.72754;102220.9;;;;-73
2023/07/10 09:55:03;;;;;;;;;;;;;;;30.38;39.82422;102227.7;;;;-72
2023/07/10 09:59:55;;;;;;;;;;;;;;;30.46;39.50293;102224.7;;;;-73
2023/07/10 10:05:04;;;;;;;;;;;;;;;30.5;38.90918;102219;;;;-72
2023/07/10 10:07:07;;;;;;;0.2;0;;;;;;;;;;;;;-73
2023/07/10 10:10:04;;;;;;;;;;;;;;;30.52;39.06348;102218.9;;;;-73
2023/07/10 10:14:56;;;;;;;;;;;;;;;30.63;38.78027;102220.6;;;;-72
2023/07/10 10:19:58;;;;;;;;;;;;;;;30.74;38.66016;102224.5;;;;-70
2023/07/10 10:24:54;;;;;;;;;;;;;;;30.99;38.0127;102229.7;;;;-69
2023/07/10 10:30:01;;;;;;;;;;;;;;;30.89;37.89844;102227.3;;;;-68
2023/07/10 10:35:00;;;;;;;;;;;;;;;30.53;37.78711;102211.8;;;;-68
2023/07/10 10:37:17;;;;;;;0.1;0;;;;;;;;;;;;;-69
2023/07/10 10:39:58;;;;;;;;;;;;;;;30.82;37.63477;102212.1;;;;-69
2023/07/10 10:44:59;;;;;;;;;;;;;;;30.93;37.87891;102207.4;;;;-69
2023/07/10 10:50:01;;;;;;;;;;;;;;;31.03;37.33594;102206.3;;;;-69
2023/07/10 10:55:00;;;;;;;;;;;;;;;31.02;36.91113;102216.3;;;;-68
2023/07/10 10:59:59;;;;;;;;;;;;;;;31.05;37.44238;102226.2;;;;-68
2023/07/10 11:04:58;;;;;;;;;;;;;;;30.94;37.63281;102232.4;;;;-69
2023/07/10 11:07:18;;;;;;;0.1;0;;;;;;;;;;;;;-68
2023/07/10 11:09:56;;;;;;;;;;;;;;;30.9;37.52441;102216.3;;;;-68
2023/07/10 11:14:56;;;;;;;;;;;;;;;30.98;36.94434;102219.3;;;;-67
2023/07/10 11:19:55;;;;;;;;;;;;;;;30.9;38.42676;102224.5;;;;-68
2023/07/10 11:24:55;;;;;;;;;;;;;;;31.13;38.69238;102215.9;;;;-68
2023/07/10 11:29:57;;;;;;;;;;;;;;;31.19;38.52246;102217.7;;;;-68
2023/07/10 11:34:59;;;;;;;;;;;;;;;31.25;37.97559;102223.7;;;;-70
2023/07/10 11:37:43;;;;;;;0.2;0;;;;;;;;;;;;;-70
2023/07/10 11:39:54;;;;;;;;;;;;;;;31.22;38.20801;102224.5;;;;-69
2023/07/10 11:45:02;;;;;;;;;;;;;;;31.25;37.8584;102217.3;;;;-67
2023/07/10 11:50:04;;;;;;;;;;;;;;;31.24;37.75195;102211.1;;;;-67
2023/07/10 11:55:14;;;;;;;;;;;;;;;31.29;36.94531;102216.5;;;;-72
2023/07/10 11:59:55;;;;;;;;;;;;;;;30.98;35.75781;102211.5;;;;-72
2023/07/10 12:04:54;;;;;;;;;;;;;;;30.72;36.95801;102220.9;;;;-72
2023/07/10 12:07:30;;;;;;;0.1;0;;;;;;;;;;;;;-72
2023/07/10 12:09:59;;;;;;;;;;;;;;;30.77;36.72754;102216.1;;;;-72
2023/07/10 12:14:55;;;;;;;;;;;;;;;31.15;35.81836;102217.7;;;;-72
2023/07/10 12:19:59;;;;;;;;;;;;;;;31.34;35.65723;102222.4;;;;-71
2023/07/10 12:24:57;;;;;;;;;;;;;;;31.46;35.49023;102218.8;;;;-72
2023/07/10 12:29:56;;;;;;;;;;;;;;;31.52;35.30762;102217.7;;;;-73
2023/07/10 12:34:54;;;;;;;;;;;;;;;31.69;34.56738;102215.1;;;;-72
2023/07/10 12:37:34;;;;;;;0.1;0;;;;;;;;;;;;;-73
2023/07/10 12:39:55;;;;;;;;;;;;;;;31.87;34.88672;102213.6;;;;-72
2023/07/10 12:44:54;;;;;;;;;;;;;;;31.89;34.18262;102208.4;;;;-73
2023/07/10 12:49:58;;;;;;;;;;;;;;;31.77;33.62109;102208.8;;;;-72
2023/07/10 12:54:56;;;;;;;;;;;;;;;31.84;35.16699;102205.2;;;;-72
2023/07/10 12:59:58;;;;;;;;;;;;;;;31.84;34.33203;102209;;;;-69
2023/07/10 13:04:58;;;;;;;;;;;;;;;31.86;34.29785;102205.5;;;;-68
2023/07/10 13:07:41;;;;;;;0.2;0;;;;;;;;;;;;;-70
2023/07/10 13:10:01;;;;;;;;;;;;;;;32.14;34.58984;102208.6;;;;-69
2023/07/10 13:14:55;;;;;;;;;;;;;;;32.13;33.45898;102204.3;;;;-69
2023/07/10 13:19:55;;;;;;;;;;;;;;;32.06;33.45313;102204.2;;;;-68
2023/07/10 13:24:54;;;;;;;;;;;;;;;32.05;33.66504;102196.5;;;;-69
2023/07/10 13:29:54;;;;;;;;;;;;;;;32.23;33.63086;102195.6;;;;-68
2023/07/10 13:34:54;;;;;;;;;;;;;;;32.33;34.16895;102195.5;;;;-69
2023/07/10 13:37:47;;;;;;;0.1;0;;;;;;;;;;;;;-68
2023/07/10 13:39:55;;;;;;;;;;;;;;;32.43;32.31348;102195.8;;;;-68
2023/07/10 13:44:54;;;;;;;;;;;;;;;32.68;33.43945;102194.9;;;;-68
2023/07/10 13:49:56;;;;;;;;;;;;;;;32.68;32.79102;102191.1;;;;-70
2023/07/10 13:54:55;;;;;;;;;;;;;;;32.75;33.31543;102190.1;;;;-69
2023/07/10 13:59:54;;;;;;;;;;;;;;;32.8;33.36621;102194.6;;;;-69
2023/07/10 14:04:55;;;;;;;;;;;;;;;32.94;32.9873;102196.9;;;;-68
2023/07/10 14:07:53;;;;;;;0.1;0;;;;;;;;;;;;;-69
2023/07/10 14:09:58;;;;;;;;;;;;;;;33.04;32.52148;102189.8;;;;-69
2023/07/10 14:14:54;;;;;;;;;;;;;;;33.01;32.90918;102188.7;;;;-69
2023/07/10 14:19:54;;;;;;;;;;;;;;;33.05;32.95996;102183.5;;;;-69
2023/07/10 14:24:55;;;;;;;;;;;;;;;33.09;33.28125;102174.2;;;;-70
2023/07/10 14:29:55;;;;;;;;;;;;;;;33.12;33.5791;102162.9;;;;-69
2023/07/10 14:34:54;;;;;;;;;;;;;;;33.12;33.1416;102172.8;;;;-70
2023/07/10 14:37:59;;;;;;;0.1;0;;;;;;;;;;;;;-69
2023/07/10 14:39:54;;;;;;;;;;;;;;;33.25;31.75684;102178.2;;;;-69
2023/07/10 14:44:56;;;;;;;;;;;;;;;33.17;31.49219;102174.3;;;;-70
2023/07/10 14:49:54;;;;;;;;;;;;;;;33.1;32.47852;102172.4;;;;-69
2023/07/10 14:54:57;;;;;;;;;;;;;;;33.17;31.62207;102167.6;;;;-68
2023/07/10 14:59:54;;;;;;;;;;;;;;;33.15;31.98633;102163.7;;;;-69
2023/07/10 15:04:54;;;;;;;;;;;;;;;33.13;31.98438;102154.2;;;;-69
2023/07/10 15:08:06;;;;;;;0.1;0;;;;;;;;;;;;;-69
2023/07/10 15:09:54;;;;;;;;;;;;;;;33.02;30.86719;102159;;;;-69
2023/07/10 15:14:56;;;;;;;;;;;;;;;32.98;31.6084;102150.9;;;;-67
2023/07/10 15:19:55;;;;;;;;;;;;;;;33;31.44531;102138;;;;-69
2023/07/10 15:24:54;;;;;;;;;;;;;;;33;30.9375;102139;;;;-69
2023/07/10 15:29:54;;;;;;;;;;;;;;;33.06;30.1377;102131.3;;;;-69
2023/07/10 15:34:54;;;;;;;;;;;;;;;32.98;31.01855;102121.6;;;;-69
2023/07/10 15:38:13;;;;;;;0.1;0;;;;;;;;;;;;;-70
2023/07/10 15:39:54;;;;;;;;;;;;;;;32.86;31.49414;102115.8;;;;-69
2023/07/10 15:44:54;;;;;;;;;;;;;;;32.77;31.05176;102110.5;;;;-69
2023/07/10 15:49:54;;;;;;;;;;;;;;;32.73;31.26172;102114.7;;;;-69
2023/07/10 15:54:54;;;;;;;;;;;;;;;32.73;30.37598;102104.1;;;;-69
2023/07/10 15:59:54;;;;;;;;;;;;;;;32.6;30.70996;102100.2;;;;-70
2023/07/10 16:04:54;;;;;;;;;;;;;;;32.52;30.67969;102090.9;;;;-68
2023/07/10 16:08:19;;;;;;;0.2;0;;;;;;;;;;;;;-70
2023/07/10 16:09:54;;;;;;;;;;;;;;;32.45;30.2041;102089;;;;-72
2023/07/10 16:14:54;;;;;;;;;;;;;;;32.3;30.75977;102081.8;;;;-73
2023/07/10 16:19:54;;;;;;;;;;;;;;;32.18;30.62207;102087.5;;;;-74
2023/07/10 16:24:54;;;;;;;;;;;;;;;32.02;31.01172;102083.7;;;;-72
2023/07/10 16:29:54;;;;;;;;;;;;;;;31.94;31.14746;102067.7;;;;-73
2023/07/10 16:34:54;;;;;;;;;;;;;;;31.82;31.18652;102070.1;;;;-73
2023/07/10 16:38:24;;;;;;;0.1;0;;;;;;;;;;;;;-73
2023/07/10 16:39:54;;;;;;;;;;;;;;;31.67;31.2002;102063.8;;;;-73
2023/07/10 16:44:54;;;;;;;;;;;;;;;31.61;31.44336;102049.5;;;;-73
2023/07/10 16:49:54;;;;;;;;;;;;;;;31.43;31.38379;102046.4;;;;-73
2023/07/10 16:54:54;;;;;;;;;;;;;;;31.29;31.76172;102044.7;;;;-74
2023/07/10 16:59:54;;;;;;;;;;;;;;;31.09;32.15918;102045.8;;;;-73
2023/07/10 17:04:54;;;;;;;;;;;;;;;30.94;32.46582;102042.4;;;;-72
2023/07/10 17:08:30;;;;;;;0.1;0;;;;;;;;;;;;;-74
2023/07/10 17:09:55;;;;;;;;;;;;;;;30.79;33.04297;102047.6;;;;-72
2023/07/10 17:14:54;;;;;;;;;;;;;;;30.63;33.06738;102040.2;;;;-71
2023/07/10 17:19:54;;;;;;;;;;;;;;;30.42;33.36816;102036.7;;;;-73
2023/07/10 17:24:55;;;;;;;;;;;;;;;30.29;33.59277;102025.9;;;;-71
2023/07/10 17:29:55;;;;;;;;;;;;;;;30.16;33.74805;102021.5;;;;-71
2023/07/10 17:34:57;;;;;;;;;;;;;;;30.01;33.94824;102028;;;;-72
2023/07/10 17:38:36;;;;;;;0.1;0;;;;;;;;;;;;;-72
2023/07/10 17:39:54;;;;;;;;;;;;;;;29.84;34.01758;102018.6;;;;-72
2023/07/10 17:44:54;;;;;;;;;;;;;;;29.67;34.42578;102020.4;;;;-74
2023/07/10 17:49:56;;;;;;;;;;;;;;;29.41;34.66406;102011.9;;;;-71
2023/07/10 17:54:54;;;;;;;;;;;;;;;29.15;34.77148;102013.4;;;;-72
2023/07/10 17:59:57;;;;;;;;;;;;;;;28.91;34.91797;102007.8;;;;-73
2023/07/10 18:04:54;;;;;;;;;;;;;;;28.72;35.04297;102008.5;;;;-71
2023/07/10 18:08:41;;;;;;;0.1;0;;;;;;;;;;;;;-70
2023/07/10 18:09:54;;;;;;;;;;;;;;;28.57;35.16016;102012.9;;;;-72
2023/07/10 18:14:57;;;;;;;;;;;;;;;28.44;35.16211;102013;;;;-72
2023/07/10 18:19:55;;;;;;;;;;;;;;;28.3;35.2207;102003.9;;;;-72
2023/07/10 18:24:58;;;;;;;;;;;;;;;28.12;35.33496;102002.8;;;;-73
2023/07/10 18:29:54;;;;;;;;;;;;;;;27.93;35.50781;101996.7;;;;-72
2023/07/10 18:34:57;;;;;;;;;;;;;;;27.78;35.46094;101996.2;;;;-73
2023/07/10 18:38:46;;;;;;;0.2;0;;;;;;;;;;;;;-73
2023/07/10 18:39:54;;;;;;;;;;;;;;;27.61;35.41211;101987.6;;;;-72
2023/07/10 18:44:55;;;;;;;;;;;;;;;27.44;35.31738;101988.5;;;;-72
2023/07/10 18:49:54;;;;;;;;;;;;;;;27.28;35.15234;101977.4;;;;-71
2023/07/10 18:54:54;;;;;;;;;;;;;;;27.11;35.22168;101965.3;;;;-72
2023/07/10 18:59:56;;;;;;;;;;;;;;;26.92;35.47461;101955.1;;;;-71
2023/07/10 19:04:54;;;;;;;;;;;;;;;26.72;35.75;101949.5;;;;-72
2023/07/10 19:08:51;;;;;;;0.1;0;;;;;;;;;;;;;-71
2023/07/10 19:09:54;;;;;;;;;;;;;;;26.53;35.75684;101955.5;;;;-75
2023/07/10 19:14:54;;;;;;;;;;;;;;;26.33;35.92773;101948.9;;;;-67
2023/07/10 19:19:56;;;;;;;;;;;;;;;26.13;35.99219;101945.6;;;;-68
2023/07/10 19:24:57;;;;;;;;;;;;;;;25.92;36.33691;101945.5;;;;-68
2023/07/10 19:29:54;;;;;;;;;;;;;;;25.72;36.36719;101939.8;;;;-68
2023/07/10 19:34:55;;;;;;;;;;;;;;;25.54;36.65332;101941.1;;;;-68
2023/07/10 19:38:55;;;;;;;0.2;0.1;;;;;;;;;;;;;-68
2023/07/10 19:39:54;;;;;;;;;;;;;;;25.34;36.70703;101928;;;;-68
2023/07/10 19:44:57;;;;;;;;;;;;;;;25.14;36.72461;101926.6;;;;-68
2023/07/10 19:49:54;;;;;;;;;;;;;;;24.94;37.1377;101923.7;;;;-68
2023/07/10 19:54:54;;;;;;;;;;;;;;;24.76;37.07617;101915.7;;;;-68
2023/07/10 19:59:54;;;;;;;;;;;;;;;24.59;37.43066;101911.3;;;;-71
2023/07/10 20:04:54;;;;;;;;;;;;;;;24.4;37.56738;101909.4;;;;-68
2023/07/10 20:09:00;;;;;;;0.2;0;;;;;;;;;;;;;-68
2023/07/10 20:09:55;;;;;;;;;;;;;;;24.23;37.8291;101911.4;;;;-69
2023/07/10 20:14:54;;;;;;;;;;;;;;;24.05;37.93066;101909.8;;;;-69
2023/07/10 20:19:57;;;;;;;;;;;;;;;23.9;38.40332;101914;;;;-68
2023/07/10 20:24:54;;;;;;;;;;;;;;;23.76;38.51758;101918.1;;;;-69
2023/07/10 20:29:54;;;;;;;;;;;;;;;23.62;38.59766;101911.6;;;;-68
2023/07/10 20:34:54;;;;;;;;;;;;;;;23.5;38.88672;101906.1;;;;-69
2023/07/10 20:39:04;;;;;;;0.3;0.2;;;;;;;;;;;;;-72
2023/07/10 20:39:54;;;;;;;;;;;;;;;23.37;38.95703;101906.9;;;;-68
2023/07/10 20:44:56;;;;;;;;;;;;;;;23.24;39.17578;101897.9;;;;-68
2023/07/10 20:49:55;;;;;;;;;;;;;;;23.12;39.41895;101905.1;;;;-69
2023/07/10 20:54:54;;;;;;;;;;;;;;;22.99;39.5;101900.1;;;;-67
2023/07/10 20:59:56;;;;;;;;;;;;;;;22.87;39.75488;101897.6;;;;-68
2023/07/10 21:04:54;;;;;;;;;;;;;;;22.83;39.87695;101897.4;;;;-69
2023/07/10 21:09:14;;;;;;;0.2;0;;;;;;;;;;;;;-68
2023/07/10 21:09:56;;;;;;;;;;;;;;;22.76;39.94043;101894.6;;;;-67
2023/07/10 21:14:54;;;;;;;;;;;;;;;22.72;40.08594;101894.2;;;;-70
2023/07/10 21:19:56;;;;;;;;;;;;;;;22.67;40.04688;101904;;;;-68
2023/07/10 21:24:54;;;;;;;;;;;;;;;22.63;40.22754;101898.4;;;;-69
2023/07/10 21:29:54;;;;;;;;;;;;;;;22.58;40.36133;101901.4;;;;-68
2023/07/10 21:34:54;;;;;;;;;;;;;;;22.54;40.49609;101903.9;;;;-69
2023/07/10 21:39:11;;;;;;;0.2;0.1;;;;;;;;;;;;;-69
2023/07/10 21:39:54;;;;;;;;;;;;;;;22.51;40.44727;101903.2;;;;-69
2023/07/10 21:44:55;;;;;;;;;;;;;;;22.49;40.61816;101897.8;;;;-68
2023/07/10 21:49:54;;;;;;;;;;;;;;;22.41;41.01367;101893.2;;;;-68
2023/07/10 21:54:54;;;;;;;;;;;;;;;22.38;40.94141;101895.7;;;;-68
2023/07/10 21:59:54;;;;;;;;;;;;;;;22.36;40.94043;101894.7;;;;-69
2023/07/10 22:04:54;;;;;;;;;;;;;;;22.32;41.36035;101892.4;;;;-74
2023/07/10 22:09:17;;;;;;;0.2;0;;;;;;;;;;;;;-73
2023/07/10 22:09:54;;;;;;;;;;;;;;;22.28;41.46191;101886.8;;;;-72
2023/07/10 22:14:54;;;;;;;;;;;;;;;22.24;41.6875;101882.6;;;;-68
2023/07/10 22:19:58;;;;;;;;;;;;;;;22.19;42.08496;101875.8;;;;-69
2023/07/10 22:24:57;;;;;;;;;;;;;;;22.17;42.12891;101872.5;;;;-68
2023/07/10 22:29:56;;;;;;;;;;;;;;;22.11;42.42188;101870.1;;;;-70
2023/07/10 22:34:54;;;;;;;;;;;;;;;22.07;42.49805;101876.7;;;;-68
2023/07/10 22:39:18;;;;;;;0.2;0;;;;;;;;;;;;;-69
2023/07/10 22:39:54;;;;;;;;;;;;;;;22.02;43.65332;101861.8;;;;-68
2023/07/10 22:44:54;;;;;;;;;;;;;;;21.98;43.10938;101851;;;;-69
2023/07/10 22:49:58;;;;;;;;;;;;;;;21.93;43.30078;101841.5;;;;-67
2023/07/10 22:54:54;;;;;;;;;;;;;;;21.9;43.12598;101830.8;;;;-68
2023/07/10 22:59:54;;;;;;;;;;;;;;;21.84;43.40625;101831.3;;;;-71
2023/07/10 23:04:54;;;;;;;;;;;;;;;21.81;43.25391;101826.7;;;;-71
2023/07/10 23:09:21;;;;;;;0.2;0;;;;;;;;;;;;;-70
2023/07/10 23:09:54;;;;;;;;;;;;;;;21.74;42.96094;101820.6;;;;-69
2023/07/10 23:14:57;;;;;;;;;;;;;;;21.63;42.99707;101809.6;;;;-68
2023/07/10 23:19:54;;;;;;;;;;;;;;;21.56;43.0459;101805.6;;;;-67
2023/07/10 23:24:54;;;;;;;;;;;;;;;21.5;43.19043;101803.8;;;;-68
2023/07/10 23:29:54;;;;;;;;;;;;;;;21.43;43.36621;101791;;;;-67
2023/07/10 23:34:54;;;;;;;;;;;;;;;21.36;43.21094;101784.3;;;;-68
2023/07/10 23:39:25;;;;;;;0.2;0.1;;;;;;;;;;;;;-69
2023/07/10 23:39:54;;;;;;;;;;;;;;;21.32;43.27539;101781.5;;;;-67
2023/07/10 23:44:54;;;;;;;;;;;;;;;21.23;43.51855;101776.9;;;;-66
2023/07/10 23:49:55;;;;;;;;;;;;;;;21.18;43.27344;101777.7;;;;-68
2023/07/10 23:54:58;;;;;;;;;;;;;;;21.08;43.25195;101776.8;;;;-68
2023/07/10 23:59:54;;;;;;;;;;;;;;;21.03;43.46484;101773.9;;;;-69
